Time;durP1;ratioP1;P1;durP2;ratioP2;P2;SDS_P1;SDS_P2;PMS_P1;PMS_P2;Temp;Humidity;BMP_temperature;BMP_pressure;BME280_temperature;BME280_humidity;BME280_pressure;Samples;Min_cycle;Max_cycle;Signal;HPM_P1;HPM_P2
2022/08/17 00:02:18;;;;;;;13.73;12.37;;;;;;;;;;5061631;28;20679;-44
2022/08/17 00:04:46;;;;;;;13.43;12.13;;;;;;;;;;5061820;28;20460;-44
2022/08/17 00:07:13;;;;;;;12.77;11.60;;;;;;;;;;5062644;28;20198;-46
2022/08/17 00:09:44;;;;;;;13.57;12.37;;;;;;;;;;5061868;28;20211;-44
2022/08/17 00:12:18;;;;;;;12.90;11.70;;;;;;;;;;5056737;28;20198;-46
2022/08/17 00:14:48;;;;;;;11.03;10.23;;;;;;;;;;5066950;28;20914;-44
2022/08/17 00:17:18;;;;;;;10.83;9.83;;;;;;;;;;5062027;28;20210;-46
2022/08/17 00:19:46;;;;;;;13.33;12.10;;;;;;;;;;5062463;28;21087;-46
2022/08/17 00:22:13;;;;;;;13.27;12.13;;;20.70;99.90;;;;;;5062245;28;20390;-44
2022/08/17 00:24:39;;;;;;;14.30;12.90;;;20.60;99.90;;;;;;5060489;28;20194;-44
2022/08/17 00:27:07;;;;;;;15.43;13.50;;;20.50;99.90;;;;;;5068672;28;20654;-46
2022/08/17 00:29:35;;;;;;;14.73;13.30;;;20.50;99.90;;;;;;5058424;28;20302;-45
2022/08/17 00:32:03;;;;;;;15.90;14.33;;;20.30;99.90;;;;;;5067829;28;20244;-44
2022/08/17 00:34:29;;;;;;;14.90;13.30;;;20.30;99.90;;;;;;5058979;28;20790;-47
2022/08/17 00:36:56;;;;;;;17.90;15.07;;;20.20;99.90;;;;;;5063493;28;20199;-45
2022/08/17 00:39:23;;;;;;;17.70;14.60;;;20.10;99.90;;;;;;5060434;28;20628;-46
2022/08/17 00:41:50;;;;;;;15.60;14.20;;;20.10;99.90;;;;;;5063495;28;20225;-45
2022/08/17 00:44:17;;;;;;;15.93;14.37;;;20.10;99.90;;;;;;5060412;28;20210;-47
2022/08/17 00:46:46;;;;;;;15.27;13.93;;;20.00;99.90;;;;;;5064205;28;20198;-45
2022/08/17 00:49:18;;;;;;;14.73;13.47;;;20.00;99.90;;;;;;5062232;28;20202;-46
2022/08/17 00:51:49;;;;;;;14.20;12.87;;;20.10;99.90;;;;;;5061957;28;20179;-44
2022/08/17 00:54:21;;;;;;;15.90;13.17;;;20.00;99.90;;;;;;5073973;28;20198;-46
2022/08/17 00:56:53;;;;;;;14.43;13.17;;;20.00;99.90;;;;;;5083506;28;20236;-44
2022/08/17 00:59:23;;;;;;;17.10;13.73;;;20.00;99.90;;;;;;5054193;28;20308;-44
2022/08/17 01:01:52;;;;;;;14.57;13.37;;;19.90;99.90;;;;;;5073390;28;20232;-44
2022/08/17 01:04:22;;;;;;;12.70;11.50;;;19.80;99.90;;;;;;5064024;28;20255;-45
2022/08/17 01:06:51;;;;;;;14.37;12.97;;;19.80;99.90;;;;;;5066456;28;20198;-45
2022/08/17 01:09:19;;;;;;;15.27;13.73;;;19.90;99.90;;;;;;5065204;28;20221;-47
2022/08/17 01:11:51;;;;;;;14.70;13.40;;;19.80;99.90;;;;;;5066188;28;20183;-44
2022/08/17 01:14:19;;;;;;;14.93;13.63;;;19.80;99.90;;;;;;5060372;28;20217;-48
2022/08/17 01:16:48;;;;;;;14.80;13.50;;;19.70;99.90;;;;;;5073819;28;20190;-44
2022/08/17 01:19:19;;;;;;;15.30;13.87;;;19.80;99.90;;;;;;5065184;28;20233;-49
2022/08/17 01:21:52;;;;;;;15.67;14.00;;;19.70;99.90;;;;;;5065755;28;20366;-46
2022/08/17 01:24:20;;;;;;;16.67;14.53;;;19.60;99.90;;;;;;5063356;28;20194;-44
2022/08/17 01:26:47;;;;;;;16.40;14.73;;;19.70;99.90;;;;;;5075467;28;20655;-44
2022/08/17 01:29:15;;;;;;;15.43;14.00;;;19.70;99.90;;;;;;5072068;28;21858;-46
2022/08/17 01:31:47;;;;;;;16.67;15.17;;;19.60;99.90;;;;;;5062010;28;20218;-44
2022/08/17 01:34:16;;;;;;;16.47;14.97;;;19.50;99.90;;;;;;5070106;28;20672;-45
2022/08/17 01:36:46;;;;;;;15.87;14.47;;;19.50;99.90;;;;;;5064812;28;20248;-46
2022/08/17 01:39:22;;;;;;;16.07;14.57;;;19.40;99.90;;;;;;5065433;28;20551;-45
2022/08/17 01:41:55;;;;;;;15.50;14.10;;;19.50;99.90;;;;;;5066213;28;20218;-47
2022/08/17 01:44:26;;;;;;;15.83;14.43;;;19.40;99.90;;;;;;5059706;28;20202;-48
2022/08/17 01:46:53;;;;;;;16.57;15.07;;;19.30;99.90;;;;;;5077757;28;20220;-44
2022/08/17 01:49:20;;;;;;;18.33;15.77;;;19.20;99.90;;;;;;5067178;28;20695;-46
2022/08/17 01:51:47;;;;;;;16.00;14.43;;;19.20;99.90;;;;;;5065283;28;20199;-46
2022/08/17 01:54:17;;;;;;;16.43;14.93;;;19.20;99.90;;;;;;5064201;28;20209;-47
2022/08/17 01:56:47;;;;;;;14.83;13.37;;;19.30;99.90;;;;;;5069714;28;20194;-44
2022/08/17 01:59:17;;;;;;;14.57;13.33;;;19.30;99.90;;;;;;5067660;28;20225;-46
2022/08/17 02:01:44;;;;;;;14.67;13.47;;;19.30;99.90;;;;;;5060007;28;20253;-46
2022/08/17 02:04:12;;;;;;;14.50;13.10;;;19.20;99.90;;;;;;5072103;28;20198;-49
2022/08/17 02:06:42;;;;;;;15.07;13.63;;;19.20;99.90;;;;;;5063545;28;20241;-49
2022/08/17 02:09:09;;;;;;;15.50;13.97;;;19.30;99.90;;;;;;5065845;28;20213;-49
2022/08/17 02:11:38;;;;;;;14.33;13.13;;;19.30;99.90;;;;;;5062913;28;20187;-44
2022/08/17 02:14:05;;;;;;;13.63;12.53;;;19.20;99.90;;;;;;5064975;28;20203;-45
2022/08/17 02:16:35;;;;;;;14.53;13.23;;;19.20;99.90;;;;;;5055718;28;20260;-45
2022/08/17 02:19:03;;;;;;;14.90;13.60;;;19.30;99.90;;;;;;5075742;28;20203;-50
2022/08/17 02:21:31;;;;;;;15.27;14.00;;;19.30;99.90;;;;;;5061684;28;20229;-45
2022/08/17 02:23:59;;;;;;;15.83;14.20;;;19.30;99.90;;;;;;5065122;28;20831;-46
2022/08/17 02:26:25;;;;;;;17.90;16.20;;;19.30;99.90;;;;;;5070510;28;20567;-45
2022/08/17 02:28:52;;;;;;;17.67;15.87;;;19.30;99.90;;;;;;5074923;28;20199;-45
2022/08/17 02:31:20;;;;;;;17.67;15.33;;;19.30;99.90;;;;;;5055674;28;20214;-48
2022/08/17 02:33:48;;;;;;;16.63;15.03;;;19.30;99.90;;;;;;5066065;28;20706;-46
2022/08/17 02:36:15;;;;;;;16.47;14.90;;;19.20;99.90;;;;;;5064335;28;20202;-45
2022/08/17 02:38:43;;;;;;;16.43;14.97;;;19.20;99.90;;;;;;5063948;28;20187;-44
2022/08/17 02:41:11;;;;;;;16.67;15.17;;;19.20;99.90;;;;;;5064750;28;20210;-46
2022/08/17 02:43:38;;;;;;;15.73;14.33;;;19.10;99.90;;;;;;5061994;28;20935;-44
2022/08/17 02:46:05;;;;;;;16.13;14.83;;;19.10;99.90;;;;;;5065669;28;20214;-46
2022/08/17 02:48:32;;;;;;;15.83;14.33;;;19.10;99.90;;;;;;5054396;28;20982;-48
2022/08/17 02:51:00;;;;;;;15.17;13.77;;;19.00;99.90;;;;;;5075621;28;20260;-47
2022/08/17 02:53:27;;;;;;;14.77;13.40;;;19.00;99.90;;;;;;5060614;28;20202;-44
2022/08/17 02:55:54;;;;;;;14.27;12.83;;;19.00;99.90;;;;;;5071928;28;20208;-46
2022/08/17 02:58:21;;;;;;;13.87;12.77;;;19.00;99.90;;;;;;5074360;28;20198;-49
2022/08/17 03:00:48;;;;;;;15.07;13.67;;;18.90;99.90;;;;;;5071170;28;20242;-44
2022/08/17 03:03:18;;;;;;;14.37;13.07;;;18.90;99.90;;;;;;5063585;28;20225;-45
2022/08/17 03:05:46;;;;;;;14.93;13.53;;;18.90;99.90;;;;;;5068836;28;20194;-45
2022/08/17 03:08:15;;;;;;;15.23;13.93;;;18.80;99.90;;;;;;5070466;28;20730;-44
2022/08/17 03:10:43;;;;;;;15.90;14.40;;;18.90;99.90;;;;;;5063069;28;20214;-47
2022/08/17 03:13:11;;;;;;;14.90;13.40;;;18.90;99.90;;;;;;5063779;28;20201;-48
2022/08/17 03:15:39;;;;;;;14.87;13.40;;;18.90;99.90;;;;;;5062286;28;20191;-45
2022/08/17 03:18:07;;;;;;;14.77;13.57;;;18.80;99.90;;;;;;5064702;28;20210;-51
2022/08/17 03:20:35;;;;;;;15.43;13.87;;;18.80;99.90;;;;;;5055953;28;20955;-46
2022/08/17 03:23:03;;;;;;;14.50;13.20;;;18.80;99.90;;;;;;5071214;28;20211;-45
2022/08/17 03:25:34;;;;;;;15.10;13.70;;;18.90;99.90;;;;;;5060283;28;20190;-44
2022/08/17 03:28:01;;;;;;;14.80;13.50;;;18.90;99.90;;;;;;5063967;28;20205;-44
2022/08/17 03:30:28;;;;;;;14.63;13.33;;;18.90;99.90;;;;;;5072543;28;20255;-44
2022/08/17 03:32:59;;;;;;;14.67;13.17;;;18.90;99.90;;;;;;5068969;28;20201;-44
2022/08/17 03:35:30;;;;;;;17.47;15.77;;;18.90;99.90;;;;;;5065846;28;20206;-47
2022/08/17 03:37:58;;;;;;;16.70;15.20;;;18.90;99.90;;;;;;5067226;28;20206;-47
2022/08/17 03:40:25;;;;;;;17.60;15.97;;;18.80;99.90;;;;;;5066748;28;20692;-46
2022/08/17 03:42:54;;;;;;;18.77;16.90;;;18.60;99.90;;;;;;5064136;28;20242;-44
2022/08/17 03:56:43;;;;;;;19.50;17.60;;;18.60;99.90;;;;;;5060390;28;20186;-46
2022/08/17 03:59:16;;;;;;;22.40;19.90;;;18.60;99.90;;;;;;5083037;28;20280;-46
2022/08/17 04:01:45;;;;;;;21.00;18.90;;;18.60;99.90;;;;;;5067984;28;20218;-44
2022/08/17 04:04:12;;;;;;;22.10;20.00;;;18.60;99.90;;;;;;5066283;28;20210;-46
2022/08/17 04:06:40;;;;;;;21.70;19.50;;;18.60;99.90;;;;;;5061585;28;20224;-44
2022/08/17 04:09:09;;;;;;;20.50;18.40;;;18.60;99.90;;;;;;5048518;28;20217;-46
2022/08/17 04:11:37;;;;;;;21.43;18.70;;;18.60;99.90;;;;;;5071023;28;20273;-46
2022/08/17 04:14:04;;;;;;;21.73;19.60;;;18.60;99.90;;;;;;5070916;28;20198;-45
2022/08/17 04:16:33;;;;;;;17.70;16.00;;;18.60;99.90;;;;;;5062241;28;20209;-44
2022/08/17 04:19:00;;;;;;;17.43;15.80;;;18.60;99.90;;;;;;5071447;28;20241;-47
2022/08/17 04:21:27;;;;;;;20.07;18.17;;;18.60;99.90;;;;;;5073213;28;20551;-45
2022/08/17 04:23:54;;;;;;;18.53;16.73;;;18.50;99.90;;;;;;5046400;28;20653;-48
2022/08/17 04:26:21;;;;;;;19.50;17.63;;;18.50;99.90;;;;;;5073287;28;20204;-63
2022/08/17 04:28:48;;;;;;;20.33;18.37;;;18.50;99.90;;;;;;5058168;28;20198;-57
2022/08/17 04:31:16;;;;;;;20.77;18.67;;;18.60;99.90;;;;;;5066895;28;20300;-61
2022/08/17 04:33:44;;;;;;;19.90;17.93;;;18.60;99.90;;;;;;5081375;28;20194;-61
2022/08/17 04:36:14;;;;;;;19.13;17.33;;;18.60;99.90;;;;;;5066484;28;20190;-60
2022/08/17 04:38:42;;;;;;;17.53;15.93;;;18.60;99.90;;;;;;5074337;28;20198;-54
2022/08/17 04:43:57;;;;;;;20.40;17.97;;;18.60;99.90;;;;;;5067216;28;20250;-58
2022/08/17 04:46:26;;;;;;;18.93;17.13;;;18.70;99.90;;;;;;5060248;28;20229;-56
2022/08/17 04:48:56;;;;;;;18.40;16.70;;;18.70;99.90;;;;;;5073438;28;20194;-58
2022/08/17 04:51:26;;;;;;;18.67;16.90;;;18.70;99.90;;;;;;5065858;28;20203;-58
2022/08/17 04:53:56;;;;;;;20.10;18.20;;;18.70;99.90;;;;;;5056015;28;20204;-58
2022/08/17 04:56:24;;;;;;;21.10;19.13;;;18.80;99.90;;;;;;5068288;28;20251;-55
2022/08/17 04:58:54;;;;;;;24.13;21.63;;;18.80;99.90;;;;;;5062502;28;20195;-59
2022/08/17 05:01:24;;;;;;;23.47;21.13;;;18.80;99.90;;;;;;5076181;28;20956;-56
2022/08/17 05:03:52;;;;;;;22.00;19.77;;;18.80;99.90;;;;;;5061711;28;20225;-59
2022/08/17 05:06:20;;;;;;;21.27;19.00;;;18.80;99.90;;;;;;5061011;28;20227;-58
2022/08/17 05:08:48;;;;;;;23.83;18.47;;;18.80;99.90;;;;;;5068703;28;20543;-59
2022/08/17 05:11:15;;;;;;;22.63;19.87;;;18.80;99.90;;;;;;5054460;28;20210;-55
2022/08/17 05:13:42;;;;;;;24.57;22.00;;;18.90;99.90;;;;;;5065587;28;20190;-53
2022/08/17 05:16:09;;;;;;;27.97;23.10;;;18.90;99.90;;;;;;5068562;28;20182;-59
2022/08/17 05:18:37;;;;;;;24.30;21.17;;;19.00;99.90;;;;;;5072098;28;20198;-44
2022/08/17 05:21:05;;;;;;;23.73;21.40;;;19.00;99.90;;;;;;5059496;28;20229;-44
2022/08/17 05:23:37;;;;;;;24.10;21.70;;;19.00;99.90;;;;;;5066568;28;20239;-45
2022/08/17 05:26:04;;;;;;;22.67;20.23;;;19.00;99.90;;;;;;5047846;28;20221;-44
2022/08/17 05:28:31;;;;;;;21.87;19.87;;;19.00;99.90;;;;;;5069429;28;20202;-46
2022/08/17 05:31:02;;;;;;;22.93;20.50;;;19.10;99.90;;;;;;5074036;28;20218;-46
2022/08/17 05:33:30;;;;;;;25.67;21.37;;;19.10;99.90;;;;;;5066492;28;20570;-51
2022/08/17 05:35:59;;;;;;;21.23;19.10;;;19.10;99.90;;;;;;5061149;28;20680;-47
2022/08/17 05:38:27;;;;;;;25.73;23.03;;;19.20;99.90;;;;;;5066981;28;20218;-50
2022/08/17 05:40:56;;;;;;;30.03;26.90;;;19.20;99.90;;;;;;5061278;28;20229;-42
2022/08/17 05:43:25;;;;;;;28.40;23.33;;;19.30;99.90;;;;;;5060556;28;20691;-44
2022/08/17 05:46:01;;;;;;;22.90;20.33;;;19.30;99.90;;;;;;5064111;28;20194;-47
2022/08/17 05:48:30;;;;;;;31.77;24.07;;;19.40;99.90;;;;;;5070857;28;20202;-44
2022/08/17 05:51:06;;;;;;;44.07;30.50;;;19.40;99.90;;;;;;5061848;28;20223;-46
2022/08/17 05:53:42;;;;;;;28.07;21.97;;;19.50;99.90;;;;;;5070271;28;20666;-46
2022/08/17 05:56:17;;;;;;;32.87;28.17;;;19.60;99.90;;;;;;5068255;28;20908;-45
2022/08/17 05:58:53;;;;;;;29.03;22.63;;;19.60;99.90;;;;;;5053527;28;20221;-45
2022/08/17 06:01:33;;;;;;;40.60;31.87;;;19.70;99.90;;;;;;5078287;28;20209;-44
2022/08/17 06:04:15;;;;;;;25.60;20.73;;;19.80;99.90;;;;;;5070306;28;20214;-49
2022/08/17 06:06:51;;;;;;;30.20;26.77;;;19.90;99.90;;;;;;5070357;28;20211;-47
2022/08/17 06:09:31;;;;;;;37.53;31.63;;;19.90;99.90;;;;;;5066335;28;20436;-44
2022/08/17 06:12:10;;;;;;;30.40;23.90;;;20.00;99.90;;;;;;5070821;28;20190;-57
2022/08/17 06:14:57;;;;;;;32.73;26.73;;;20.10;99.90;;;;;;5063298;28;20639;-62
2022/08/17 06:17:26;;;;;;;29.63;24.80;;;20.20;99.90;;;;;;5071795;28;20205;-70
2022/08/17 06:19:58;;;;;;;30.60;24.07;;;20.30;99.90;;;;;;5062758;28;20272;-72
2022/08/17 06:22:31;;;;;;;29.17;25.50;;;20.30;99.90;;;;;;5075219;28;20213;-60
2022/08/17 06:25:02;;;;;;;27.00;21.83;;;20.40;99.90;;;;;;5070101;28;20297;-46
2022/08/17 06:27:35;;;;;;;28.27;25.30;;;20.50;99.90;;;;;;5073343;28;20202;-43
2022/08/17 06:30:08;;;;;;;31.90;27.33;;;20.60;99.90;;;;;;5063730;28;20225;-45
2022/08/17 06:32:36;;;;;;;31.23;24.23;;;20.70;99.90;;;;;;5072094;28;20222;-42
2022/08/17 06:35:06;;;;;;;31.60;26.50;;;20.80;99.90;;;;;;5063118;28;20198;-44
2022/08/17 06:37:53;;;;;;;28.20;25.30;;;20.90;99.90;;;;;;5077051;28;20285;-42
2022/08/17 06:40:51;;;;;;;28.83;25.60;;;21.00;99.90;;;;;;5066361;28;20213;-44
2022/08/17 06:43:31;;;;;;;28.00;24.70;;;21.10;99.90;;;;;;5054936;28;20234;-45
2022/08/17 06:46:04;;;;;;;29.83;24.50;;;21.20;99.90;;;;;;5063024;28;20230;-44
2022/08/17 06:48:40;;;;;;;39.37;25.73;;;21.20;99.90;;;;;;5072762;28;20205;-45
2022/08/17 06:51:14;;;;;;;34.27;23.33;;;21.30;99.90;;;;;;5070517;28;20232;-45
2022/08/17 06:53:47;;;;;;;30.93;22.77;;;21.40;99.90;;;;;;5060189;28;20218;-47
2022/08/17 06:56:23;;;;;;;28.80;23.13;;;21.50;99.90;;;;;;5067241;28;20202;-47
2022/08/17 06:58:57;;;;;;;28.03;23.50;;;21.60;99.90;;;;;;5058533;28;20210;-43
2022/08/17 07:01:31;;;;;;;26.20;21.97;;;21.70;99.90;;;;;;5048333;28;20214;-43
2022/08/17 07:04:05;;;;;;;27.93;22.53;;;21.70;99.90;;;;;;5068293;28;20995;-61
2022/08/17 07:06:36;;;;;;;28.40;22.60;;;21.90;99.90;;;;;;5069452;28;20236;-64
2022/08/17 07:09:09;;;;;;;22.67;19.70;;;21.90;99.90;;;;;;5073141;28;20206;-60
2022/08/17 07:11:40;;;;;;;24.30;21.80;;;22.00;99.90;;;;;;5064062;28;20201;-62
2022/08/17 07:14:25;;;;;;;24.13;19.87;;;22.10;99.90;;;;;;5068630;28;20190;-64
2022/08/17 07:16:55;;;;;;;22.10;19.77;;;22.20;99.90;;;;;;5055417;28;20213;-60
2022/08/17 07:19:25;;;;;;;27.10;20.70;;;22.20;99.90;;;;;;5064537;28;20229;-61
2022/08/17 07:21:57;;;;;;;23.47;20.27;;;22.30;99.90;;;;;;5068768;28;20199;-63
2022/08/17 07:24:34;;;;;;;23.63;18.63;;;22.40;99.90;;;;;;5064919;28;20222;-63
2022/08/17 07:27:09;;;;;;;21.10;19.00;;;22.50;99.90;;;;;;5061559;28;20197;-59
2022/08/17 07:29:42;;;;;;;19.47;15.57;;;22.60;99.90;;;;;;5068086;28;20228;-58
2022/08/17 07:32:12;;;;;;;18.57;16.57;;;22.70;99.90;;;;;;5057309;28;20198;-59
2022/08/17 07:35:09;;;;;;;20.83;17.40;;;22.80;99.90;;;;;;5068090;28;20277;-62
2022/08/17 07:37:37;;;;;;;18.17;14.80;;;22.80;99.90;;;;;;5064539;28;20207;-47
2022/08/17 07:40:20;;;;;;;17.47;15.03;;;23.00;99.90;;;;;;5046997;28;20567;-49
2022/08/17 07:43:22;;;;;;;16.27;13.93;;;23.10;99.90;;;;;;5058279;28;20208;-46
2022/08/17 07:48:52;;;;;;;20.67;14.43;;;23.40;99.90;;;;;;5071629;28;20562;-45
2022/08/17 07:51:28;;;;;;;17.63;13.57;;;23.50;99.90;;;;;;5061607;28;20337;-43
2022/08/17 07:53:58;;;;;;;13.32;11.77;;;23.60;99.90;;;;;;5067384;28;20695;-44
2022/08/17 07:56:36;;;;;;;14.25;11.45;;;23.80;99.90;;;;;;5074126;28;20912;-43
2022/08/17 07:59:12;;;;;;;12.18;10.95;;;23.90;99.90;;;;;;5066396;28;20217;-46
2022/08/17 08:01:41;;;;;;;11.27;10.18;;;24.00;99.90;;;;;;5069430;28;20208;-46
2022/08/17 08:04:32;;;;;;;10.05;9.05;;;24.10;99.90;;;;;;5043376;28;20280;-48
2022/08/17 08:07:05;;;;;;;9.95;9.02;;;24.20;99.90;;;;;;5066251;28;20198;-44
2022/08/17 08:09:37;;;;;;;8.40;7.65;;;24.30;99.90;;;;;;5075736;28;20214;-45
2022/08/17 08:12:25;;;;;;;9.82;8.93;;;24.40;99.90;;;;;;5066450;28;20228;-44
2022/08/17 08:14:55;;;;;;;11.85;9.95;;;24.50;99.90;;;;;;5069505;28;20226;-47
2022/08/17 08:17:29;;;;;;;9.80;8.93;;;24.50;99.90;;;;;;5063888;28;20205;-45
2022/08/17 08:19:59;;;;;;;11.55;10.40;;;24.60;99.90;;;;;;5052382;28;20226;-46
2022/08/17 08:22:35;;;;;;;15.70;9.63;;;24.80;99.90;;;;;;5066895;28;20697;-44
2022/08/17 08:25:21;;;;;;;14.95;9.20;;;24.80;99.90;;;;;;5064322;28;20221;-43
2022/08/17 08:28:00;;;;;;;12.95;9.70;;;24.90;99.90;;;;;;5077683;28;20228;-45
2022/08/17 08:30:31;;;;;;;10.23;9.23;;;25.00;99.90;;;;;;5077078;28;20620;-46
2022/08/17 08:33:20;;;;;;;9.50;8.55;;;25.20;99.90;;;;;;5059081;28;20198;-53
2022/08/17 08:35:53;;;;;;;11.02;9.15;;;25.30;99.90;;;;;;5063343;28;20208;-50
2022/08/17 08:38:34;;;;;;;11.25;8.82;;;25.30;99.90;;;;;;5060885;28;20205;-46
2022/08/17 08:41:28;;;;;;;8.55;7.85;;;25.50;99.90;;;;;;5064201;28;20237;-54
2022/08/17 08:44:05;;;;;;;8.13;7.53;;;25.50;99.90;;;;;;5063812;28;20482;-53
2022/08/17 08:46:39;;;;;;;10.20;9.20;;;25.60;99.90;;;;;;5066615;28;20277;-48
2022/08/17 08:49:33;;;;;;;11.07;8.38;;;25.70;99.90;;;;;;5047255;28;20206;-51
2022/08/17 08:52:02;;;;;;;7.47;6.85;;;25.70;99.90;;;;;;5062262;28;20682;-51
2022/08/17 08:54:38;;;;;;;7.97;7.38;;;25.80;99.90;;;;;;5062062;28;20194;-51
2022/08/17 08:57:17;;;;;;;11.95;8.10;;;25.90;99.90;;;;;;5061314;28;20705;-53
2022/08/17 08:59:56;;;;;;;8.65;8.00;;;25.90;99.90;;;;;;5070499;28;20221;-54
2022/08/17 09:02:45;;;;;;;9.25;7.35;;;26.00;99.90;;;;;;5063192;28;20195;-49
2022/08/17 09:05:25;;;;;;;9.93;8.77;;;26.10;99.90;;;;;;5051222;28;20228;-48
2022/08/17 09:08:02;;;;;;;8.48;7.88;;;26.30;99.90;;;;;;5063708;28;20209;-48
2022/08/17 09:10:34;;;;;;;8.80;8.07;;;26.40;99.90;;;;;;5064323;28;20321;-48
2022/08/17 09:13:09;;;;;;;9.27;8.52;;;26.50;99.90;;;;;;5064441;28;20273;-49
2022/08/17 09:15:43;;;;;;;8.00;7.25;;;26.60;99.90;;;;;;5067261;28;20820;-50
2022/08/17 09:18:15;;;;;;;9.30;7.82;;;26.70;99.90;;;;;;5067978;28;20932;-49
2022/08/17 09:20:49;;;;;;;8.45;7.72;;;26.80;99.90;;;;;;5051291;28;20589;-51
2022/08/17 09:23:25;;;;;;;8.90;8.02;;;26.80;99.90;;;;;;5063574;28;20195;-48
2022/08/17 09:25:58;;;;;;;8.48;7.70;;;26.90;99.90;;;;;;5068884;28;20202;-50
2022/08/17 09:28:32;;;;;;;8.93;8.30;;;26.80;99.90;;;;;;5069087;28;20247;-52
2022/08/17 09:31:03;;;;;;;11.73;7.50;;;26.90;99.70;;;;;;5076842;28;20221;-53
2022/08/17 09:33:33;;;;;;;8.15;7.43;;;27.00;99.70;;;;;;5070966;28;20206;-51
2022/08/17 09:36:05;;;;;;;7.38;6.78;;;27.10;99.70;;;;;;5057867;28;20202;-52
2022/08/17 09:38:40;;;;;;;8.00;7.35;;;27.10;99.50;;;;;;5067137;28;20619;-50
2022/08/17 09:41:16;;;;;;;9.38;7.53;;;27.20;99.20;;;;;;5066897;28;20930;-51
2022/08/17 09:43:53;;;;;;;8.45;6.68;;;27.20;98.30;;;;;;5066089;28;20213;-48
2022/08/17 09:46:24;;;;;;;12.60;7.38;;;27.20;98.80;;;;;;5075585;28;20205;-47
2022/08/17 09:48:57;;;;;;;8.45;7.53;;;27.30;98.70;;;;;;5076363;28;20212;-53
2022/08/17 09:51:32;;;;;;;8.93;7.90;;;27.30;98.60;;;;;;5076388;28;20190;-52
2022/08/17 09:53:59;;;;;;;7.68;7.07;;;27.30;98.70;;;;;;5057590;28;20205;-51
2022/08/17 09:56:51;;;;;;;9.32;8.00;;;27.30;98.50;;;;;;5072680;28;20209;-50
2022/08/17 09:59:29;;;;;;;7.68;6.78;;;27.30;98.40;;;;;;5076451;28;20481;-53
2022/08/17 10:02:05;;;;;;;8.05;7.32;;;27.40;98.40;;;;;;5074747;28;20586;-54
2022/08/17 10:04:40;;;;;;;7.68;7.03;;;27.60;97.80;;;;;;5076806;28;20224;-53
2022/08/17 10:07:14;;;;;;;7.22;6.53;;;27.80;97.70;;;;;;5055599;28;20217;-53
2022/08/17 10:09:51;;;;;;;7.25;6.60;;;27.80;97.50;;;;;;5068680;28;20218;-49
2022/08/17 10:12:28;;;;;;;7.63;6.93;;;27.80;97.00;;;;;;5068785;28;20210;-51
2022/08/17 10:15:14;;;;;;;10.73;6.95;;;28.00;96.70;;;;;;5068394;28;20663;-49
2022/08/17 10:17:54;;;;;;;7.95;7.20;;;28.10;96.40;;;;;;5068621;28;20198;-48
2022/08/17 10:20:28;;;;;;;8.05;7.32;;;28.30;95.90;;;;;;5072827;28;20933;-48
2022/08/17 10:28:40;;;;;;;8.68;7.90;;;28.60;94.10;;;;;;5064211;28;20194;-48
2022/08/17 10:31:10;;;;;;;6.82;6.20;;;28.60;94.00;;;;;;5079527;28;20210;-53
2022/08/17 10:33:50;;;;;;;8.93;6.70;;;28.50;93.70;;;;;;5065089;28;20205;-47
2022/08/17 10:36:26;;;;;;;16.17;8.32;;;28.50;93.90;;;;;;5071752;28;20687;-50
2022/08/17 10:39:09;;;;;;;7.32;6.72;;;28.50;94.20;;;;;;5059704;28;20617;-48
2022/08/17 10:41:43;;;;;;;8.98;6.63;;;28.60;93.90;;;;;;5063053;28;20191;-49
2022/08/17 10:44:13;;;;;;;6.63;6.05;;;28.70;93.00;;;;;;5071276;28;20263;-47
2022/08/17 10:46:54;;;;;;;6.35;5.82;;;28.80;92.40;;;;;;5072792;28;20190;-49
2022/08/17 10:49:29;;;;;;;7.10;6.50;;;28.90;91.60;;;;;;5070330;28;20241;-49
2022/08/17 10:51:57;;;;;;;15.40;7.32;;;29.00;91.90;;;;;;5064067;28;20194;-53
2022/08/17 10:54:46;;;;;;;7.13;6.50;;;29.00;91.70;;;;;;5054031;28;20213;-50
2022/08/17 10:57:36;;;;;;;6.35;5.80;;;29.10;91.40;;;;;;5069640;28;20709;-50
2022/08/17 11:00:07;;;;;;;7.32;6.03;;;29.10;90.70;;;;;;5067718;28;20292;-52
2022/08/17 11:02:44;;;;;;;7.22;6.53;;;29.00;90.60;;;;;;5070244;28;20190;-52
2022/08/17 11:05:52;;;;;;;6.43;5.80;;;28.90;90.80;;;;;;5062045;28;20971;-51
2022/08/17 11:08:39;;;;;;;6.45;6.00;;;29.00;90.80;;;;;;5076800;28;20297;-50
2022/08/17 11:11:25;;;;;;;7.43;6.57;;;28.90;91.00;;;;;;5065058;28;20237;-50
2022/08/17 11:14:16;;;;;;;7.65;6.63;;;28.80;90.80;;;;;;5061940;28;20674;-49
2022/08/17 11:16:49;;;;;;;7.93;6.40;;;28.80;90.80;;;;;;5073488;28;20225;-50
2022/08/17 11:19:48;;;;;;;6.30;5.88;;;28.90;90.70;;;;;;5064449;28;20209;-51
2022/08/17 11:22:47;;;;;;;6.03;5.38;;;28.80;89.30;;;;;;5075917;28;20198;-50
2022/08/17 11:25:18;;;;;;;5.65;5.22;;;28.80;89.20;;;;;;5039704;28;20226;-52
2022/08/17 11:27:52;;;;;;;6.18;5.57;;;28.90;87.20;;;;;;5065941;28;20513;-53
2022/08/17 11:30:41;;;;;;;6.22;5.78;;;29.00;86.50;;;;;;5061056;28;20223;-52
2022/08/17 11:33:44;;;;;;;6.07;5.60;;;29.10;86.40;;;;;;5068187;28;20208;-52
2022/08/17 11:36:20;;;;;;;5.63;5.03;;;29.20;85.40;;;;;;5067886;28;20311;-47
2022/08/17 11:38:56;;;;;;;5.72;5.22;;;29.20;85.20;;;;;;5073354;28;20212;-50
2022/08/17 11:41:31;;;;;;;9.57;6.18;;;29.20;85.60;;;;;;5058570;28;20306;-50
2022/08/17 11:44:24;;;;;;;5.90;5.43;;;29.20;84.60;;;;;;5062772;28;20225;-49
2022/08/17 11:52:52;;;;;;;5.20;4.90;;;29.20;81.70;;;;;;5064685;28;20190;-52
2022/08/17 11:55:52;;;;;;;6.18;5.22;;;29.20;81.30;;;;;;5067130;28;20190;-51
2022/08/17 11:58:36;;;;;;;6.05;5.20;;;29.30;80.10;;;;;;5064484;28;20263;-49
2022/08/17 12:01:06;;;;;;;5.70;5.18;;;29.40;80.20;;;;;;5058406;28;20223;-51
2022/08/17 12:03:45;;;;;;;5.60;5.07;;;29.40;79.40;;;;;;5073810;28;20194;-53
2022/08/17 12:06:31;;;;;;;5.00;4.63;;;29.40;79.00;;;;;;5068060;28;20926;-53
2022/08/17 12:09:02;;;;;;;5.68;5.20;;;29.50;78.40;;;;;;5062929;28;20202;-51
2022/08/17 12:11:39;;;;;;;5.80;5.10;;;29.60;78.10;;;;;;5075810;28;20252;-54
2022/08/17 12:14:08;;;;;;;6.07;5.65;;;29.60;78.10;;;;;;5059330;28;20201;-53
2022/08/17 12:16:37;;;;;;;5.75;5.30;;;29.50;77.90;;;;;;5064100;28;20582;-50
2022/08/17 12:19:04;;;;;;;5.63;5.18;;;29.50;78.00;;;;;;5068953;28;20970;-50
2022/08/17 12:21:41;;;;;;;8.13;6.10;;;29.50;77.90;;;;;;5070440;28;20198;-53
2022/08/17 12:24:30;;;;;;;5.80;5.30;;;29.50;76.90;;;;;;5068202;28;20190;-51
2022/08/17 12:27:00;;;;;;;6.45;5.43;;;29.50;77.00;;;;;;5051315;28;21081;-51
2022/08/17 12:29:28;;;;;;;5.88;5.47;;;29.50;77.60;;;;;;5069907;28;20218;-50
2022/08/17 12:31:58;;;;;;;5.88;5.40;;;29.50;77.60;;;;;;5068761;28;20198;-55
2022/08/17 12:34:28;;;;;;;6.65;4.82;;;29.50;77.40;;;;;;5071139;28;20205;-51
2022/08/17 12:37:00;;;;;;;6.43;5.50;;;29.50;76.30;;;;;;5062266;28;20201;-53
2022/08/17 12:39:29;;;;;;;5.43;4.63;;;29.60;76.20;;;;;;5074558;28;20225;-49
2022/08/17 12:41:59;;;;;;;5.90;5.40;;;29.60;76.30;;;;;;5060064;28;20255;-51
2022/08/17 12:44:28;;;;;;;5.45;4.88;;;29.60;76.40;;;;;;5064705;28;20222;-55
2022/08/17 12:47:02;;;;;;;5.68;5.28;;;29.40;75.40;;;;;;5062577;28;20209;-53
2022/08/17 12:49:32;;;;;;;5.82;5.03;;;29.50;75.50;;;;;;5065165;28;20272;-54
2022/08/17 12:52:10;;;;;;;6.18;5.53;;;29.50;76.20;;;;;;5065252;28;20203;-52
2022/08/17 12:54:47;;;;;;;5.88;5.47;;;29.50;77.00;;;;;;5069442;28;20186;-52
2022/08/17 12:57:17;;;;;;;5.93;4.80;;;29.50;76.30;;;;;;5074920;28;20194;-52
2022/08/17 12:59:47;;;;;;;5.18;4.75;;;29.40;75.60;;;;;;5060649;28;20232;-54
2022/08/17 13:02:30;;;;;;;6.40;4.88;;;29.30;76.00;;;;;;5072678;28;20209;-48
2022/08/17 13:05:00;;;;;;;7.20;5.60;;;29.30;74.80;;;;;;5073810;28;20213;-54
2022/08/17 13:07:30;;;;;;;6.55;4.93;;;29.20;75.10;;;;;;5072943;28;20337;-50
2022/08/17 13:09:57;;;;;;;6.25;5.60;;;29.10;75.60;;;;;;5070243;28;20209;-51
2022/08/17 13:12:31;;;;;;;5.65;5.05;;;29.00;75.60;;;;;;5067846;28;20206;-53
2022/08/17 13:14:58;;;;;;;5.63;5.22;;;29.00;75.80;;;;;;5060209;28;20210;-49
2022/08/17 13:17:34;;;;;;;5.22;4.85;;;29.00;76.20;;;;;;5063941;28;20203;-54
2022/08/17 13:20:03;;;;;;;5.93;5.43;;;29.00;77.20;;;;;;5072361;28;20217;-54
2022/08/17 13:22:31;;;;;;;10.25;5.25;;;28.90;76.90;;;;;;5073194;28;20216;-52
2022/08/17 13:25:04;;;;;;;5.97;5.45;;;28.90;76.80;;;;;;5064455;28;20272;-50
2022/08/17 13:27:32;;;;;;;7.43;5.60;;;28.80;77.00;;;;;;5065299;28;20194;-53
2022/08/17 13:30:02;;;;;;;5.53;5.15;;;28.80;76.60;;;;;;5062630;28;20213;-50
2022/08/17 13:32:37;;;;;;;6.57;5.65;;;28.80;76.50;;;;;;5062335;28;20277;-54
2022/08/17 13:35:27;;;;;;;5.60;5.00;;;28.80;77.00;;;;;;5071949;28;20198;-51